Terminal Aerodrome Forecast
Issued by NWS

Home | Current Version | Previous Version | Text Only | Print | Product List | Glossary On
Versions: 1 2 3 4 5 6 7 8 9 10 11 12 13 14 15 16
000
FTUS44 KTSA 301300 AAA
TAFXNA
TAF AMD
KXNA 301303Z 3013/3112 19009KT P6SM VCSH BKN030 BKN060
     FM301600 20007KT P6SM VCTS SCT040CB SCT250
     FM310100 17003KT P6SM SCT250
     FM310700 00000KT 3SM BR FEW250
      TEMPO 3108/3112 1SM BR SCT005=

USA.gov is the U.S. government's official web portal to all federal, state and local government web resources and services.